Aviation Digital Data Service (ADDS)

Output produced by METARs form (0344 UTC 23 November 2017)
found at http://www.aviationweather.gov/adds/metars/
 
OTBD 230300Z 18004KT 140V220 CAVOK 25/17 Q1012 NOSIG
TAF OTBD 221657Z 2218/2324 14008KT CAVOK 
     BECMG 2223/2301 21008KT 
     TEMPO 2306/2318 5000 RA SCT040 BKN100 
     BECMG 2308/2310 32012KT 
     PROB30 
     TEMPO 2310/2316 32020KT 4000 -SHRA FEW040CB
       
OTBH 230256Z 31004KT 9000 HZ FEW070 SCT100 21/15 A2990 RMK AO2A SLP126 T02110152 53016 $
TAF OTBH 222300Z 2223/2405 13009KT 9000 HZ SCT090 BKN120 QNH2984INS 
     BECMG 2305/2306 23010G15KT 9000 HZ SCT060 BKN100 QNH2990INS 
     BECMG 2309/2310 30012G18KT 9000 HZ SCT060 BKN100 QNH2989INS 
     BECMG 2313/2314 36012G18KT 9000 HZ VCSH SCT070 BKN100 QNH2991INS 
     BECMG 2318/2319 33009KT 9000 HZ BKN200 QNH2996INS TX29/2310Z TN21/2302Z